Airfield :
LOGIN :

Register | Disclaimer

   EN    FR    IT 

 










Legend :    VFR   Marginal VFR   IFR   Intensive IFR   Very Intensive IFR
Visi :
Ceiling :
>= 8 km
>= 3000ft
5 to 8 km
1000 to 3000 ft
1500m to 5 km
500 to 1000 ft
800 to 1500m
200 to 500 ft
< 800m
< 200 ft
Symbols :   Thunderstorms  Fog  Heavy snow  Heavy precipitations  Wind > 20 kt
SIGMETs :     Misc.  Thunderstorms  Icing  Turbulence  Mountain Waves  Volcanic Ashes







- Airport Elevation : 256 ft
- IATA code : KUN


EYKA - Kaunas

CURRENT METAR :
  • 171420Z 30007KT 240V360 9999 FEW024CB SCT029 BKN046 21/16 Q1017

EXPIRED METARs :
  • 171350Z 31006KT 260V010 9999 SCT037 BKN047 21/16 Q1017
  • 171320Z 29006KT 250V350 9999 FEW020CB OVC046 21/17 Q1017
  • 171250Z 28007KT 250V310 9999 SCT039CB OVC046 20/17 Q1017
  • 171220Z 27012KT 240V300 9999 -SHRA BKN013CB OVC023 20/17 Q1017
  • 171150Z 27010KT 220V300 9999 SCT014CB BKN018 OVC025 20/17 Q1017

TAF TAF EYKA
Valid from the 17 at 12:00 until the 18 at 12:00 UTC


171104Z 1712/1812 27008KT 9000 BKN015
TEMPO 1712/1718 5000 DZ BR BKN005
TEMPO 1718/1720 SHRA BKN025CB
BECMG 1720/1722 NSC
No reported NOTAMs for that airfield.



MET'MAP, your aeronautical weather chart ! - Copyright ORBIFLY December 2007 - Disclaimer

ORBIFLY MET'MAP TEAM :

Programming & Development : Alexandra Zaïnal
Concept & Development : Baudouin d'Aumeries
Co-Development & Prog : Marc-Olivier Méhu
Technical & hardware support : Manuel Goepfert

Contact : metmap@orbifly.com




SOURCES & CREDITS :

   NOAA